sensor_id;sensor_type;location;lat;lon;timestamp;temperature;humidity
18450;DHT22;9354;50.194;7.690;2023-08-08T00:01:09;15.40;99.90
18450;DHT22;9354;50.194;7.690;2023-08-08T00:03:36;15.40;99.90
18450;DHT22;9354;50.194;7.690;2023-08-08T00:06:03;15.40;99.90
18450;DHT22;9354;50.194;7.690;2023-08-08T00:08:31;15.30;99.90
18450;DHT22;9354;50.194;7.690;2023-08-08T00:11:00;15.30;99.90
18450;DHT22;9354;50.194;7.690;2023-08-08T00:13:27;15.20;99.90
18450;DHT22;9354;50.194;7.690;2023-08-08T00:15:55;15.10;99.90
18450;DHT22;9354;50.194;7.690;2023-08-08T00:18:22;15.10;99.90
18450;DHT22;9354;50.194;7.690;2023-08-08T00:20:49;15.00;99.90
18450;DHT22;9354;50.194;7.690;2023-08-08T00:23:17;15.00;99.90
18450;DHT22;9354;50.194;7.690;2023-08-08T00:25:44;15.00;99.90
18450;DHT22;9354;50.194;7.690;2023-08-08T00:28:17;14.90;99.90
18450;DHT22;9354;50.194;7.690;2023-08-08T00:30:45;14.90;99.90
18450;DHT22;9354;50.194;7.690;2023-08-08T00:33:12;14.90;99.90
18450;DHT22;9354;50.194;7.690;2023-08-08T00:35:39;15.00;99.90
18450;DHT22;9354;50.194;7.690;2023-08-08T00:38:07;14.90;99.90
18450;DHT22;9354;50.194;7.690;2023-08-08T00:40:34;15.00;99.90
18450;DHT22;9354;50.194;7.690;2023-08-08T00:43:01;14.90;99.90
18450;DHT22;9354;50.194;7.690;2023-08-08T00:45:30;14.90;99.90
18450;DHT22;9354;50.194;7.690;2023-08-08T00:47:57;14.90;99.90
18450;DHT22;9354;50.194;7.690;2023-08-08T00:50:25;14.90;99.90
18450;DHT22;9354;50.194;7.690;2023-08-08T00:52:53;14.90;99.90
18450;DHT22;9354;50.194;7.690;2023-08-08T00:55:21;14.90;99.90
18450;DHT22;9354;50.194;7.690;2023-08-08T00:57:48;14.90;99.90
18450;DHT22;9354;50.194;7.690;2023-08-08T01:00:16;14.90;99.90
18450;DHT22;9354;50.194;7.690;2023-08-08T01:02:45;14.90;99.90
18450;DHT22;9354;50.194;7.690;2023-08-08T01:05:12;14.90;99.90
18450;DHT22;9354;50.194;7.690;2023-08-08T01:07:45;14.90;99.90
18450;DHT22;9354;50.194;7.690;2023-08-08T01:10:15;14.80;99.90
18450;DHT22;9354;50.194;7.690;2023-08-08T01:12:45;14.80;99.90
18450;DHT22;9354;50.194;7.690;2023-08-08T01:15:13;14.80;99.90
18450;DHT22;9354;50.194;7.690;2023-08-08T01:17:44;14.80;99.90
18450;DHT22;9354;50.194;7.690;2023-08-08T01:20:14;14.80;99.90
18450;DHT22;9354;50.194;7.690;2023-08-08T01:22:48;14.70;99.90
18450;DHT22;9354;50.194;7.690;2023-08-08T01:25:20;14.70;99.90
18450;DHT22;9354;50.194;7.690;2023-08-08T01:27:48;14.60;99.90
18450;DHT22;9354;50.194;7.690;2023-08-08T01:30:15;14.60;99.90
18450;DHT22;9354;50.194;7.690;2023-08-08T01:32:42;14.60;99.90
18450;DHT22;9354;50.194;7.690;2023-08-08T01:35:10;14.60;99.90
18450;DHT22;9354;50.194;7.690;2023-08-08T01:37:43;14.60;99.90
18450;DHT22;9354;50.194;7.690;2023-08-08T01:40:13;14.60;99.90
18450;DHT22;9354;50.194;7.690;2023-08-08T01:42:47;14.60;99.90
18450;DHT22;9354;50.194;7.690;2023-08-08T01:45:15;14.60;99.90
18450;DHT22;9354;50.194;7.690;2023-08-08T01:47:43;14.60;99.90
18450;DHT22;9354;50.194;7.690;2023-08-08T01:50:16;14.60;99.90
18450;DHT22;9354;50.194;7.690;2023-08-08T01:52:43;14.60;99.90
18450;DHT22;9354;50.194;7.690;2023-08-08T01:55:11;14.60;99.90
18450;DHT22;9354;50.194;7.690;2023-08-08T01:57:38;14.60;99.90
18450;DHT22;9354;50.194;7.690;2023-08-08T02:00:09;14.60;99.90
18450;DHT22;9354;50.194;7.690;2023-08-08T02:02:38;14.50;99.90
18450;DHT22;9354;50.194;7.690;2023-08-08T02:05:05;14.40;99.90
18450;DHT22;9354;50.194;7.690;2023-08-08T02:07:33;14.50;99.90
18450;DHT22;9354;50.194;7.690;2023-08-08T02:10:00;14.50;99.90
18450;DHT22;9354;50.194;7.690;2023-08-08T02:12:28;14.40;99.90
18450;DHT22;9354;50.194;7.690;2023-08-08T02:14:56;14.40;99.90
18450;DHT22;9354;50.194;7.690;2023-08-08T02:17:25;14.40;99.90
18450;DHT22;9354;50.194;7.690;2023-08-08T02:19:53;14.40;99.90
18450;DHT22;9354;50.194;7.690;2023-08-08T02:22:20;14.40;99.90
18450;DHT22;9354;50.194;7.690;2023-08-08T02:24:47;14.40;99.90
18450;DHT22;9354;50.194;7.690;2023-08-08T02:27:15;14.40;99.90
18450;DHT22;9354;50.194;7.690;2023-08-08T02:29:42;14.30;99.90
18450;DHT22;9354;50.194;7.690;2023-08-08T02:32:09;14.30;99.90
18450;DHT22;9354;50.194;7.690;2023-08-08T02:34:38;14.30;99.90
18450;DHT22;9354;50.194;7.690;2023-08-08T02:37:06;14.20;99.90
18450;DHT22;9354;50.194;7.690;2023-08-08T02:39:33;14.20;99.90
18450;DHT22;9354;50.194;7.690;2023-08-08T02:42:00;14.20;99.90
18450;DHT22;9354;50.194;7.690;2023-08-08T02:44:28;14.20;99.90
18450;DHT22;9354;50.194;7.690;2023-08-08T02:46:55;14.20;99.90
18450;DHT22;9354;50.194;7.690;2023-08-08T02:49:22;14.20;99.90
18450;DHT22;9354;50.194;7.690;2023-08-08T02:51:51;14.20;99.90
18450;DHT22;9354;50.194;7.690;2023-08-08T02:54:19;14.10;99.90
18450;DHT22;9354;50.194;7.690;2023-08-08T02:56:46;14.10;99.90
18450;DHT22;9354;50.194;7.690;2023-08-08T02:59:13;14.10;99.90
18450;DHT22;9354;50.194;7.690;2023-08-08T03:01:41;14.10;99.90
18450;DHT22;9354;50.194;7.690;2023-08-08T03:04:08;14.00;99.90
18450;DHT22;9354;50.194;7.690;2023-08-08T03:06:36;13.90;99.90
18450;DHT22;9354;50.194;7.690;2023-08-08T03:09:04;13.90;99.90
18450;DHT22;9354;50.194;7.690;2023-08-08T03:11:32;13.80;99.90
18450;DHT22;9354;50.194;7.690;2023-08-08T03:13:59;13.80;99.90
18450;DHT22;9354;50.194;7.690;2023-08-08T03:16:27;13.70;99.90
18450;DHT22;9354;50.194;7.690;2023-08-08T03:18:55;13.60;99.90
18450;DHT22;9354;50.194;7.690;2023-08-08T03:21:22;13.50;99.90
18450;DHT22;9354;50.194;7.690;2023-08-08T03:23:50;13.50;99.90
18450;DHT22;9354;50.194;7.690;2023-08-08T03:26:19;13.40;99.90
18450;DHT22;9354;50.194;7.690;2023-08-08T03:28:46;13.30;99.90
18450;DHT22;9354;50.194;7.690;2023-08-08T03:31:16;13.30;99.90
18450;DHT22;9354;50.194;7.690;2023-08-08T03:33:44;13.20;99.90
18450;DHT22;9354;50.194;7.690;2023-08-08T03:36:11;13.20;99.90
18450;DHT22;9354;50.194;7.690;2023-08-08T03:38:39;13.10;99.90
18450;DHT22;9354;50.194;7.690;2023-08-08T03:41:06;13.10;99.90
18450;DHT22;9354;50.194;7.690;2023-08-08T03:43:35;13.10;99.90
18450;DHT22;9354;50.194;7.690;2023-08-08T03:46:02;13.10;99.90
18450;DHT22;9354;50.194;7.690;2023-08-08T03:48:30;13.10;99.90
18450;DHT22;9354;50.194;7.690;2023-08-08T03:50:57;13.10;99.90
18450;DHT22;9354;50.194;7.690;2023-08-08T03:53:25;13.10;99.90
18450;DHT22;9354;50.194;7.690;2023-08-08T03:55:52;13.10;99.90
18450;DHT22;9354;50.194;7.690;2023-08-08T03:58:19;13.10;99.90
18450;DHT22;9354;50.194;7.690;2023-08-08T04:00:48;13.10;99.90
18450;DHT22;9354;50.194;7.690;2023-08-08T04:03:16;13.10;99.90
18450;DHT22;9354;50.194;7.690;2023-08-08T04:05:44;13.00;99.90
18450;DHT22;9354;50.194;7.690;2023-08-08T04:08:13;13.00;99.90
18450;DHT22;9354;50.194;7.690;2023-08-08T04:10:41;13.00;99.90
18450;DHT22;9354;50.194;7.690;2023-08-08T04:13:09;13.10;99.90
18450;DHT22;9354;50.194;7.690;2023-08-08T04:15:37;13.10;99.90
18450;DHT22;9354;50.194;7.690;2023-08-08T04:18:06;13.10;99.90
18450;DHT22;9354;50.194;7.690;2023-08-08T04:20:33;13.10;99.90
18450;DHT22;9354;50.194;7.690;2023-08-08T04:23:01;13.20;99.90
18450;DHT22;9354;50.194;7.690;2023-08-08T04:25:29;13.20;99.90
18450;DHT22;9354;50.194;7.690;2023-08-08T04:27:57;13.20;99.90
18450;DHT22;9354;50.194;7.690;2023-08-08T04:30:24;13.20;99.90
18450;DHT22;9354;50.194;7.690;2023-08-08T04:32:51;13.30;99.90
18450;DHT22;9354;50.194;7.690;2023-08-08T04:35:20;13.30;99.90
18450;DHT22;9354;50.194;7.690;2023-08-08T04:37:47;13.30;99.90
18450;DHT22;9354;50.194;7.690;2023-08-08T04:40:15;13.30;99.90
18450;DHT22;9354;50.194;7.690;2023-08-08T04:42:43;13.30;99.90
18450;DHT22;9354;50.194;7.690;2023-08-08T04:45:10;13.30;99.90
18450;DHT22;9354;50.194;7.690;2023-08-08T04:47:39;13.30;99.90
18450;DHT22;9354;50.194;7.690;2023-08-08T04:50:06;13.30;99.90
18450;DHT22;9354;50.194;7.690;2023-08-08T04:52:35;13.30;99.90
18450;DHT22;9354;50.194;7.690;2023-08-08T04:55:03;13.40;99.90
18450;DHT22;9354;50.194;7.690;2023-08-08T04:57:31;13.40;99.90
18450;DHT22;9354;50.194;7.690;2023-08-08T04:59:58;13.40;99.90
18450;DHT22;9354;50.194;7.690;2023-08-08T05:02:27;13.40;99.90
18450;DHT22;9354;50.194;7.690;2023-08-08T05:04:54;13.40;99.90
18450;DHT22;9354;50.194;7.690;2023-08-08T05:07:22;13.40;99.90
18450;DHT22;9354;50.194;7.690;2023-08-08T05:09:50;13.40;99.90
18450;DHT22;9354;50.194;7.690;2023-08-08T05:12:18;13.50;99.90
18450;DHT22;9354;50.194;7.690;2023-08-08T05:14:45;13.40;99.90
18450;DHT22;9354;50.194;7.690;2023-08-08T05:17:13;13.50;99.90
18450;DHT22;9354;50.194;7.690;2023-08-08T05:19:40;13.50;99.90
18450;DHT22;9354;50.194;7.690;2023-08-08T05:22:07;13.50;99.90
18450;DHT22;9354;50.194;7.690;2023-08-08T05:24:35;13.50;99.90
18450;DHT22;9354;50.194;7.690;2023-08-08T05:27:06;13.50;99.90
18450;DHT22;9354;50.194;7.690;2023-08-08T05:29:33;13.60;99.90
18450;DHT22;9354;50.194;7.690;2023-08-08T05:32:04;13.60;99.90
18450;DHT22;9354;50.194;7.690;2023-08-08T05:34:33;13.60;99.90
18450;DHT22;9354;50.194;7.690;2023-08-08T05:37:00;13.60;99.90
18450;DHT22;9354;50.194;7.690;2023-08-08T05:39:27;13.60;99.90
18450;DHT22;9354;50.194;7.690;2023-08-08T05:41:55;13.70;99.90
18450;DHT22;9354;50.194;7.690;2023-08-08T05:44:24;13.70;99.90
18450;DHT22;9354;50.194;7.690;2023-08-08T05:46:51;13.80;99.90
18450;DHT22;9354;50.194;7.690;2023-08-08T05:49:19;13.80;99.90
18450;DHT22;9354;50.194;7.690;2023-08-08T05:51:46;13.90;99.90
18450;DHT22;9354;50.194;7.690;2023-08-08T05:54:14;13.90;99.90
18450;DHT22;9354;50.194;7.690;2023-08-08T05:56:41;13.90;99.90
18450;DHT22;9354;50.194;7.690;2023-08-08T05:59:08;14.00;99.90
18450;DHT22;9354;50.194;7.690;2023-08-08T06:01:37;14.00;99.90
18450;DHT22;9354;50.194;7.690;2023-08-08T06:04:04;14.00;99.90
18450;DHT22;9354;50.194;7.690;2023-08-08T06:06:32;14.10;99.90
18450;DHT22;9354;50.194;7.690;2023-08-08T06:08:59;14.20;99.90
18450;DHT22;9354;50.194;7.690;2023-08-08T06:11:27;14.20;99.90
18450;DHT22;9354;50.194;7.690;2023-08-08T06:13:54;14.30;99.90
18450;DHT22;9354;50.194;7.690;2023-08-08T06:16:22;14.30;99.90
18450;DHT22;9354;50.194;7.690;2023-08-08T06:18:52;14.30;99.90
18450;DHT22;9354;50.194;7.690;2023-08-08T06:21:19;14.30;99.90
18450;DHT22;9354;50.194;7.690;2023-08-08T06:23:46;14.40;99.90
18450;DHT22;9354;50.194;7.690;2023-08-08T06:26:15;14.40;99.90
18450;DHT22;9354;50.194;7.690;2023-08-08T06:28:42;14.50;99.90
18450;DHT22;9354;50.194;7.690;2023-08-08T06:31:10;14.50;99.90
18450;DHT22;9354;50.194;7.690;2023-08-08T06:33:37;14.50;99.90
18450;DHT22;9354;50.194;7.690;2023-08-08T06:36:06;14.60;99.90
18450;DHT22;9354;50.194;7.690;2023-08-08T06:38:33;14.60;99.90
18450;DHT22;9354;50.194;7.690;2023-08-08T06:41:02;14.70;99.90
18450;DHT22;9354;50.194;7.690;2023-08-08T06:43:30;14.70;99.90
18450;DHT22;9354;50.194;7.690;2023-08-08T06:45:57;14.80;99.90
18450;DHT22;9354;50.194;7.690;2023-08-08T06:48:24;14.80;99.90
18450;DHT22;9354;50.194;7.690;2023-08-08T06:50:52;14.80;99.90
18450;DHT22;9354;50.194;7.690;2023-08-08T06:53:20;14.80;99.90
18450;DHT22;9354;50.194;7.690;2023-08-08T06:55:48;14.80;99.90
18450;DHT22;9354;50.194;7.690;2023-08-08T06:58:15;14.90;99.90
18450;DHT22;9354;50.194;7.690;2023-08-08T07:00:42;14.90;99.90
18450;DHT22;9354;50.194;7.690;2023-08-08T07:03:11;14.90;99.90
18450;DHT22;9354;50.194;7.690;2023-08-08T07:05:38;15.00;99.90
18450;DHT22;9354;50.194;7.690;2023-08-08T07:08:06;15.10;99.90
18450;DHT22;9354;50.194;7.690;2023-08-08T07:10:36;15.10;99.90
18450;DHT22;9354;50.194;7.690;2023-08-08T07:13:04;15.10;99.90
18450;DHT22;9354;50.194;7.690;2023-08-08T07:15:31;15.20;99.90
18450;DHT22;9354;50.194;7.690;2023-08-08T07:17:59;15.20;99.90
18450;DHT22;9354;50.194;7.690;2023-08-08T07:20:27;15.30;99.90
18450;DHT22;9354;50.194;7.690;2023-08-08T07:22:55;15.30;99.90
18450;DHT22;9354;50.194;7.690;2023-08-08T07:25:22;15.30;99.90
18450;DHT22;9354;50.194;7.690;2023-08-08T07:27:51;15.30;99.90
18450;DHT22;9354;50.194;7.690;2023-08-08T07:30:18;15.30;99.90
18450;DHT22;9354;50.194;7.690;2023-08-08T07:32:46;15.20;99.90
18450;DHT22;9354;50.194;7.690;2023-08-08T07:35:13;15.20;99.90
18450;DHT22;9354;50.194;7.690;2023-08-08T07:37:41;15.20;99.90
18450;DHT22;9354;50.194;7.690;2023-08-08T07:40:18;15.30;99.90
18450;DHT22;9354;50.194;7.690;2023-08-08T07:42:47;15.30;99.90
18450;DHT22;9354;50.194;7.690;2023-08-08T07:45:16;15.40;99.90
18450;DHT22;9354;50.194;7.690;2023-08-08T07:47:43;15.40;99.90
18450;DHT22;9354;50.194;7.690;2023-08-08T07:50:12;15.50;99.90
18450;DHT22;9354;50.194;7.690;2023-08-08T07:52:40;15.50;99.90
18450;DHT22;9354;50.194;7.690;2023-08-08T07:55:08;15.40;99.90
18450;DHT22;9354;50.194;7.690;2023-08-08T07:57:35;15.40;99.90
18450;DHT22;9354;50.194;7.690;2023-08-08T08:00:03;15.30;99.90
18450;DHT22;9354;50.194;7.690;2023-08-08T08:02:39;15.30;99.90
18450;DHT22;9354;50.194;7.690;2023-08-08T08:05:07;15.30;99.90
18450;DHT22;9354;50.194;7.690;2023-08-08T08:07:35;15.50;99.90
18450;DHT22;9354;50.194;7.690;2023-08-08T08:10:05;15.70;99.90
18450;DHT22;9354;50.194;7.690;2023-08-08T08:12:33;15.90;99.90
18450;DHT22;9354;50.194;7.690;2023-08-08T08:15:01;16.00;99.90
18450;DHT22;9354;50.194;7.690;2023-08-08T08:17:28;16.10;99.90
18450;DHT22;9354;50.194;7.690;2023-08-08T08:19:57;16.20;99.90
18450;DHT22;9354;50.194;7.690;2023-08-08T08:22:25;16.20;99.90
18450;DHT22;9354;50.194;7.690;2023-08-08T08:24:52;16.20;99.90
18450;DHT22;9354;50.194;7.690;2023-08-08T08:27:19;16.20;99.90
18450;DHT22;9354;50.194;7.690;2023-08-08T08:29:47;16.20;99.90
18450;DHT22;9354;50.194;7.690;2023-08-08T08:32:14;16.20;99.90
18450;DHT22;9354;50.194;7.690;2023-08-08T08:34:42;16.30;99.90
18450;DHT22;9354;50.194;7.690;2023-08-08T08:37:11;16.20;99.90
18450;DHT22;9354;50.194;7.690;2023-08-08T08:39:39;16.20;99.90
18450;DHT22;9354;50.194;7.690;2023-08-08T08:42:07;16.20;99.90
18450;DHT22;9354;50.194;7.690;2023-08-08T08:44:37;16.30;99.90
18450;DHT22;9354;50.194;7.690;2023-08-08T08:47:08;16.50;99.90
18450;DHT22;9354;50.194;7.690;2023-08-08T08:49:39;16.70;99.90
18450;DHT22;9354;50.194;7.690;2023-08-08T08:52:11;16.80;99.90
18450;DHT22;9354;50.194;7.690;2023-08-08T08:54:38;16.90;99.90
18450;DHT22;9354;50.194;7.690;2023-08-08T08:57:06;17.10;99.90
18450;DHT22;9354;50.194;7.690;2023-08-08T08:59:33;17.20;99.90
18450;DHT22;9354;50.194;7.690;2023-08-08T09:02:01;17.30;99.90
18450;DHT22;9354;50.194;7.690;2023-08-08T09:04:29;17.30;99.90
18450;DHT22;9354;50.194;7.690;2023-08-08T09:06:56;17.50;99.90
18450;DHT22;9354;50.194;7.690;2023-08-08T09:09:25;17.60;99.90
18450;DHT22;9354;50.194;7.690;2023-08-08T09:11:53;17.80;99.90
18450;DHT22;9354;50.194;7.690;2023-08-08T09:14:25;17.80;99.90
18450;DHT22;9354;50.194;7.690;2023-08-08T09:16:53;17.80;99.90
18450;DHT22;9354;50.194;7.690;2023-08-08T09:19:23;17.90;99.90
18450;DHT22;9354;50.194;7.690;2023-08-08T09:21:52;18.00;99.90
18450;DHT22;9354;50.194;7.690;2023-08-08T09:24:19;18.10;99.90
18450;DHT22;9354;50.194;7.690;2023-08-08T09:26:48;18.10;99.90
18450;DHT22;9354;50.194;7.690;2023-08-08T09:29:16;18.10;99.90
18450;DHT22;9354;50.194;7.690;2023-08-08T09:31:46;18.10;99.90
18450;DHT22;9354;50.194;7.690;2023-08-08T09:34:14;18.00;99.90
18450;DHT22;9354;50.194;7.690;2023-08-08T09:36:41;17.90;99.90
18450;DHT22;9354;50.194;7.690;2023-08-08T09:39:09;17.80;99.90
18450;DHT22;9354;50.194;7.690;2023-08-08T09:41:36;17.80;99.90
18450;DHT22;9354;50.194;7.690;2023-08-08T09:44:08;17.70;99.90
18450;DHT22;9354;50.194;7.690;2023-08-08T09:46:35;17.70;99.90
18450;DHT22;9354;50.194;7.690;2023-08-08T09:49:03;17.60;99.90
18450;DHT22;9354;50.194;7.690;2023-08-08T09:51:33;17.60;99.90
18450;DHT22;9354;50.194;7.690;2023-08-08T09:54:01;17.50;99.90
18450;DHT22;9354;50.194;7.690;2023-08-08T09:56:28;17.50;99.90
18450;DHT22;9354;50.194;7.690;2023-08-08T09:58:57;17.40;99.90
18450;DHT22;9354;50.194;7.690;2023-08-08T10:01:27;17.40;99.90
18450;DHT22;9354;50.194;7.690;2023-08-08T10:03:54;17.40;99.90
18450;DHT22;9354;50.194;7.690;2023-08-08T10:06:22;17.30;99.90
18450;DHT22;9354;50.194;7.690;2023-08-08T10:08:50;17.30;99.90
18450;DHT22;9354;50.194;7.690;2023-08-08T10:11:18;17.30;99.90
18450;DHT22;9354;50.194;7.690;2023-08-08T10:13:47;17.30;99.90
18450;DHT22;9354;50.194;7.690;2023-08-08T10:16:16;17.30;99.90
18450;DHT22;9354;50.194;7.690;2023-08-08T10:18:45;17.30;99.90
18450;DHT22;9354;50.194;7.690;2023-08-08T10:21:12;17.30;99.90
18450;DHT22;9354;50.194;7.690;2023-08-08T10:23:40;17.40;99.90
18450;DHT22;9354;50.194;7.690;2023-08-08T10:26:18;17.40;99.90
18450;DHT22;9354;50.194;7.690;2023-08-08T10:28:56;17.40;99.90
18450;DHT22;9354;50.194;7.690;2023-08-08T10:31:23;17.40;99.90
18450;DHT22;9354;50.194;7.690;2023-08-08T10:34:02;17.50;99.90
18450;DHT22;9354;50.194;7.690;2023-08-08T10:36:49;17.50;99.90
18450;DHT22;9354;50.194;7.690;2023-08-08T10:39:19;17.60;99.90
18450;DHT22;9354;50.194;7.690;2023-08-08T10:41:48;17.60;99.90
18450;DHT22;9354;50.194;7.690;2023-08-08T10:44:22;17.70;99.90
18450;DHT22;9354;50.194;7.690;2023-08-08T10:46:51;17.70;99.90
18450;DHT22;9354;50.194;7.690;2023-08-08T10:49:20;17.80;99.90
18450;DHT22;9354;50.194;7.690;2023-08-08T10:51:49;17.90;99.90
18450;DHT22;9354;50.194;7.690;2023-08-08T10:54:20;18.00;99.90
18450;DHT22;9354;50.194;7.690;2023-08-08T10:56:50;18.00;99.90
18450;DHT22;9354;50.194;7.690;2023-08-08T10:59:21;18.00;99.90
18450;DHT22;9354;50.194;7.690;2023-08-08T11:01:50;18.00;99.90
18450;DHT22;9354;50.194;7.690;2023-08-08T11:04:21;18.00;99.90
18450;DHT22;9354;50.194;7.690;2023-08-08T11:06:53;18.10;99.90
18450;DHT22;9354;50.194;7.690;2023-08-08T11:09:21;18.10;99.90
18450;DHT22;9354;50.194;7.690;2023-08-08T11:11:49;18.20;99.90
18450;DHT22;9354;50.194;7.690;2023-08-08T11:14:18;18.30;99.90
18450;DHT22;9354;50.194;7.690;2023-08-08T11:16:47;18.30;99.90
18450;DHT22;9354;50.194;7.690;2023-08-08T11:19:15;18.40;99.90
18450;DHT22;9354;50.194;7.690;2023-08-08T11:21:47;18.50;99.90
18450;DHT22;9354;50.194;7.690;2023-08-08T11:24:14;18.60;99.90
18450;DHT22;9354;50.194;7.690;2023-08-08T11:26:44;18.60;99.90
18450;DHT22;9354;50.194;7.690;2023-08-08T11:29:13;18.60;99.90
18450;DHT22;9354;50.194;7.690;2023-08-08T11:31:41;18.60;99.90
18450;DHT22;9354;50.194;7.690;2023-08-08T11:34:08;18.60;99.90
18450;DHT22;9354;50.194;7.690;2023-08-08T11:36:38;18.60;99.90
18450;DHT22;9354;50.194;7.690;2023-08-08T11:39:07;18.60;99.90
18450;DHT22;9354;50.194;7.690;2023-08-08T11:41:36;18.70;99.90
18450;DHT22;9354;50.194;7.690;2023-08-08T11:44:05;18.70;99.90
18450;DHT22;9354;50.194;7.690;2023-08-08T11:46:33;18.70;99.90
18450;DHT22;9354;50.194;7.690;2023-08-08T11:49:04;18.70;99.90
18450;DHT22;9354;50.194;7.690;2023-08-08T11:51:33;18.60;99.90
18450;DHT22;9354;50.194;7.690;2023-08-08T11:54:02;18.60;99.90
18450;DHT22;9354;50.194;7.690;2023-08-08T11:56:33;18.60;99.90
18450;DHT22;9354;50.194;7.690;2023-08-08T11:59:00;18.50;99.90
18450;DHT22;9354;50.194;7.690;2023-08-08T12:01:28;18.50;99.90
18450;DHT22;9354;50.194;7.690;2023-08-08T12:03:57;18.40;99.90
18450;DHT22;9354;50.194;7.690;2023-08-08T12:06:28;18.40;99.90
18450;DHT22;9354;50.194;7.690;2023-08-08T12:08:56;18.30;99.90
18450;DHT22;9354;50.194;7.690;2023-08-08T12:11:23;18.40;99.90
18450;DHT22;9354;50.194;7.690;2023-08-08T12:13:59;18.40;99.90
18450;DHT22;9354;50.194;7.690;2023-08-08T12:16:28;18.50;99.90
18450;DHT22;9354;50.194;7.690;2023-08-08T12:18:55;18.60;99.90
18450;DHT22;9354;50.194;7.690;2023-08-08T12:21:23;18.70;99.90
18450;DHT22;9354;50.194;7.690;2023-08-08T12:23:50;18.80;99.90
18450;DHT22;9354;50.194;7.690;2023-08-08T12:26:18;18.90;99.90
18450;DHT22;9354;50.194;7.690;2023-08-08T12:28:46;18.90;99.90
18450;DHT22;9354;50.194;7.690;2023-08-08T12:31:14;18.80;99.90
18450;DHT22;9354;50.194;7.690;2023-08-08T12:33:42;18.80;99.90
18450;DHT22;9354;50.194;7.690;2023-08-08T12:36:09;18.80;99.90
18450;DHT22;9354;50.194;7.690;2023-08-08T12:38:37;18.80;99.90
18450;DHT22;9354;50.194;7.690;2023-08-08T12:41:04;18.80;99.90
18450;DHT22;9354;50.194;7.690;2023-08-08T12:43:32;18.80;99.90
18450;DHT22;9354;50.194;7.690;2023-08-08T12:46:00;18.80;99.90
18450;DHT22;9354;50.194;7.690;2023-08-08T12:48:29;18.80;99.90
18450;DHT22;9354;50.194;7.690;2023-08-08T12:50:56;18.90;99.90
18450;DHT22;9354;50.194;7.690;2023-08-08T12:53:23;19.00;99.90
18450;DHT22;9354;50.194;7.690;2023-08-08T12:55:51;19.00;99.90
18450;DHT22;9354;50.194;7.690;2023-08-08T12:58:18;18.90;99.90
18450;DHT22;9354;50.194;7.690;2023-08-08T13:00:46;18.90;99.90
18450;DHT22;9354;50.194;7.690;2023-08-08T13:03:14;18.80;99.90
18450;DHT22;9354;50.194;7.690;2023-08-08T13:05:42;18.80;99.90
18450;DHT22;9354;50.194;7.690;2023-08-08T13:08:10;18.90;99.90
18450;DHT22;9354;50.194;7.690;2023-08-08T13:10:39;19.00;99.90
18450;DHT22;9354;50.194;7.690;2023-08-08T13:13:07;19.30;99.90
18450;DHT22;9354;50.194;7.690;2023-08-08T13:15:34;19.50;99.90
18450;DHT22;9354;50.194;7.690;2023-08-08T13:18:02;19.60;99.90
18450;DHT22;9354;50.194;7.690;2023-08-08T13:20:29;19.60;99.90
18450;DHT22;9354;50.194;7.690;2023-08-08T13:22:58;19.70;99.90
18450;DHT22;9354;50.194;7.690;2023-08-08T13:25:26;19.80;99.90
18450;DHT22;9354;50.194;7.690;2023-08-08T13:27:53;19.90;99.90
18450;DHT22;9354;50.194;7.690;2023-08-08T13:30:20;20.00;99.90
18450;DHT22;9354;50.194;7.690;2023-08-08T13:32:48;19.90;99.90
18450;DHT22;9354;50.194;7.690;2023-08-08T13:35:16;19.90;99.90
18450;DHT22;9354;50.194;7.690;2023-08-08T13:37:43;19.80;99.90
18450;DHT22;9354;50.194;7.690;2023-08-08T13:40:13;19.70;99.90
18450;DHT22;9354;50.194;7.690;2023-08-08T13:42:40;19.50;99.90
18450;DHT22;9354;50.194;7.690;2023-08-08T13:45:08;19.40;99.90
18450;DHT22;9354;50.194;7.690;2023-08-08T13:47:36;19.30;99.90
18450;DHT22;9354;50.194;7.690;2023-08-08T13:50:04;19.10;99.90
18450;DHT22;9354;50.194;7.690;2023-08-08T13:52:32;19.00;99.90
18450;DHT22;9354;50.194;7.690;2023-08-08T13:55:00;18.90;99.90
18450;DHT22;9354;50.194;7.690;2023-08-08T13:57:29;18.80;99.90
18450;DHT22;9354;50.194;7.690;2023-08-08T13:59:57;18.70;99.90
18450;DHT22;9354;50.194;7.690;2023-08-08T14:02:24;18.60;99.90
18450;DHT22;9354;50.194;7.690;2023-08-08T14:04:51;18.50;99.90
18450;DHT22;9354;50.194;7.690;2023-08-08T14:07:19;18.50;99.90
18450;DHT22;9354;50.194;7.690;2023-08-08T14:09:48;18.50;99.90
18450;DHT22;9354;50.194;7.690;2023-08-08T14:12:15;18.40;99.90
18450;DHT22;9354;50.194;7.690;2023-08-08T14:14:44;18.40;99.90
18450;DHT22;9354;50.194;7.690;2023-08-08T14:17:11;18.40;99.90
18450;DHT22;9354;50.194;7.690;2023-08-08T14:19:39;18.40;99.90
18450;DHT22;9354;50.194;7.690;2023-08-08T14:22:06;18.30;99.90
18450;DHT22;9354;50.194;7.690;2023-08-08T14:24:34;18.30;99.90
18450;DHT22;9354;50.194;7.690;2023-08-08T14:27:01;18.30;99.90
18450;DHT22;9354;50.194;7.690;2023-08-08T14:29:28;18.30;99.90
18450;DHT22;9354;50.194;7.690;2023-08-08T14:31:57;18.30;99.90
18450;DHT22;9354;50.194;7.690;2023-08-08T14:34:29;18.20;99.90
18450;DHT22;9354;50.194;7.690;2023-08-08T14:36:56;18.20;99.90
18450;DHT22;9354;50.194;7.690;2023-08-08T14:39:24;18.20;99.90
18450;DHT22;9354;50.194;7.690;2023-08-08T14:41:51;18.10;99.90
18450;DHT22;9354;50.194;7.690;2023-08-08T14:44:19;18.10;99.90
18450;DHT22;9354;50.194;7.690;2023-08-08T14:46:46;18.10;99.90
18450;DHT22;9354;50.194;7.690;2023-08-08T14:49:15;18.20;99.90
18450;DHT22;9354;50.194;7.690;2023-08-08T14:51:43;18.20;99.90
18450;DHT22;9354;50.194;7.690;2023-08-08T14:54:10;18.30;99.90
18450;DHT22;9354;50.194;7.690;2023-08-08T14:56:38;18.50;99.90
18450;DHT22;9354;50.194;7.690;2023-08-08T14:59:05;18.70;99.90
18450;DHT22;9354;50.194;7.690;2023-08-08T15:01:32;18.80;99.90
18450;DHT22;9354;50.194;7.690;2023-08-08T15:04:00;18.90;99.90
18450;DHT22;9354;50.194;7.690;2023-08-08T15:06:29;19.00;99.90
18450;DHT22;9354;50.194;7.690;2023-08-08T15:08:57;19.10;99.90
18450;DHT22;9354;50.194;7.690;2023-08-08T15:11:24;19.10;99.90
18450;DHT22;9354;50.194;7.690;2023-08-08T15:13:52;19.00;99.90
18450;DHT22;9354;50.194;7.690;2023-08-08T15:16:19;19.00;99.90
18450;DHT22;9354;50.194;7.690;2023-08-08T15:18:46;18.90;99.90
18450;DHT22;9354;50.194;7.690;2023-08-08T15:21:14;18.90;99.90
18450;DHT22;9354;50.194;7.690;2023-08-08T15:23:47;18.90;99.90
18450;DHT22;9354;50.194;7.690;2023-08-08T15:26:14;18.80;99.90
18450;DHT22;9354;50.194;7.690;2023-08-08T15:28:42;18.80;99.90
18450;DHT22;9354;50.194;7.690;2023-08-08T15:31:09;18.80;99.90
18450;DHT22;9354;50.194;7.690;2023-08-08T15:33:37;18.80;99.90
18450;DHT22;9354;50.194;7.690;2023-08-08T15:36:05;18.80;99.90
18450;DHT22;9354;50.194;7.690;2023-08-08T15:38:32;18.80;99.90
18450;DHT22;9354;50.194;7.690;2023-08-08T15:41:01;18.80;99.90
18450;DHT22;9354;50.194;7.690;2023-08-08T15:43:29;18.80;99.90
18450;DHT22;9354;50.194;7.690;2023-08-08T15:45:57;18.80;99.90
18450;DHT22;9354;50.194;7.690;2023-08-08T15:48:24;18.80;99.90
18450;DHT22;9354;50.194;7.690;2023-08-08T15:50:52;18.70;99.90